createdAt,value
2023-03-02T00:00:48.263Z,97083.94
2023-03-02T00:01:50.108Z,97088.28
2023-03-02T00:02:52.014Z,97086.50
2023-03-02T00:03:54.316Z,97084.88
2023-03-02T00:04:57.711Z,97080.41
2023-03-02T00:05:59.964Z,97085.28
2023-03-02T00:07:04.288Z,97081.91
2023-03-02T00:08:06.175Z,97083.38
2023-03-02T00:09:08.119Z,97087.28
2023-03-02T00:10:10.537Z,97081.16
2023-03-02T00:11:12.934Z,97089.56
2023-03-02T00:12:16.087Z,97080.09
2023-03-02T00:13:17.798Z,97079.94
2023-03-02T00:14:19.574Z,97087.53
2023-03-02T00:15:21.567Z,97085.38
2023-03-02T00:16:23.893Z,97087.81
2023-03-02T00:17:28.651Z,97089.28
2023-03-02T00:18:30.509Z,97094.44
2023-03-02T00:19:32.203Z,97090.22
2023-03-02T00:20:35.978Z,97093.91
2023-03-02T00:21:37.765Z,97084.72
2023-03-02T00:22:40.530Z,97080.50
2023-03-02T00:23:42.293Z,97087.28
2023-03-02T00:24:44.135Z,97079.56
2023-03-02T00:25:45.973Z,97084.72
2023-03-02T00:26:47.777Z,97081.34
2023-03-02T00:27:49.649Z,97080.38
2023-03-02T00:28:51.465Z,97085.50
2023-03-02T00:29:53.296Z,97080.66
2023-03-02T00:30:55.187Z,97084.88
2023-03-02T00:31:57.055Z,97092.91
2023-03-02T00:32:58.943Z,97092.63
2023-03-02T00:34:00.766Z,97091.72
2023-03-02T00:35:02.545Z,97083.63
2023-03-02T00:36:04.516Z,97075.06
2023-03-02T00:37:06.366Z,97090.38
2023-03-02T00:38:08.687Z,97090.09
2023-03-02T00:39:10.507Z,97096.06
2023-03-02T00:40:12.435Z,97095.91
2023-03-02T00:41:15.015Z,97089.53
2023-03-02T00:42:16.850Z,97087.34
2023-03-02T00:43:18.759Z,97094.63
2023-03-02T00:44:20.564Z,97084.22
2023-03-02T00:45:22.337Z,97087.75
2023-03-02T00:46:24.853Z,97094.25
2023-03-02T00:47:26.624Z,97090.06
2023-03-02T00:48:28.507Z,97088.97
2023-03-02T00:49:30.431Z,97080.88
2023-03-02T00:50:32.404Z,97083.34
2023-03-02T00:51:34.256Z,97083.22
2023-03-02T00:52:36.045Z,97081.06
2023-03-02T00:53:38.471Z,97087.66
2023-03-02T00:54:40.278Z,97085.91
2023-03-02T00:55:42.087Z,97094.94
2023-03-02T00:56:43.934Z,97089.13
2023-03-02T00:57:55.064Z,97084.66
2023-03-02T00:58:56.960Z,97078.97
2023-03-02T00:59:58.875Z,97082.09
2023-03-02T01:01:05.077Z,97083.44
2023-03-02T01:02:07.500Z,97075.59
2023-03-02T01:03:09.395Z,97082.63
2023-03-02T01:04:11.309Z,97073.94
2023-03-02T01:05:13.138Z,97075.84
2023-03-02T01:06:16.520Z,97076.97
2023-03-02T01:07:18.903Z,97078.19
2023-03-02T01:08:20.636Z,97076.16
2023-03-02T01:09:22.620Z,97071.00
2023-03-02T01:10:24.446Z,97071.81
2023-03-02T01:11:26.217Z,97073.94
2023-03-02T01:12:27.960Z,97081.53
2023-03-02T01:13:29.770Z,97079.25
2023-03-02T01:14:32.288Z,97082.63
2023-03-02T01:15:34.935Z,97075.72
2023-03-02T01:16:37.795Z,97075.06
2023-03-02T01:17:41.596Z,97074.13
2023-03-02T01:18:43.518Z,97071.59
2023-03-02T01:19:45.323Z,97074.84
2023-03-02T01:20:47.089Z,97068.78
2023-03-02T01:21:48.987Z,97072.41
2023-03-02T01:22:50.974Z,97069.13
2023-03-02T01:23:52.836Z,97072.47
2023-03-02T01:24:54.606Z,97069.34
2023-03-02T01:25:56.431Z,97069.22
2023-03-02T01:26:58.406Z,97063.84
2023-03-02T01:28:00.240Z,97063.00
2023-03-02T01:29:02.061Z,97057.59
2023-03-02T01:30:04.031Z,97058.78
2023-03-02T01:31:05.989Z,97056.88
2023-03-02T01:32:07.917Z,97060.41
2023-03-02T01:33:09.777Z,97053.47
2023-03-02T01:34:11.554Z,97051.44
2023-03-02T01:35:13.623Z,97053.63
2023-03-02T01:36:15.498Z,97061.84
2023-03-02T01:37:17.322Z,97055.75
2023-03-02T01:38:19.131Z,97058.47
2023-03-02T01:39:22.761Z,97058.09
2023-03-02T01:40:26.154Z,97053.88
2023-03-02T01:41:28.043Z,97056.31
2023-03-02T01:42:34.451Z,97054.56
2023-03-02T01:43:36.311Z,97055.53
2023-03-02T01:44:43.344Z,97055.53
2023-03-02T01:45:47.531Z,97053.31
2023-03-02T01:46:49.375Z,97052.78
2023-03-02T01:47:51.189Z,97052.94
2023-03-02T01:48:56.796Z,97048.22
2023-03-02T01:50:17.310Z,97050.66
2023-03-02T01:51:21.099Z,97045.91
2023-03-02T01:52:26.252Z,97047.72
2023-03-02T01:53:29.783Z,97048.13
2023-03-02T01:54:31.854Z,97037.69
2023-03-02T01:55:34.365Z,97041.88
2023-03-02T01:56:38.789Z,97043.34
2023-03-02T01:57:46.273Z,97040.78
2023-03-02T01:58:51.447Z,97043.50
2023-03-02T01:59:57.019Z,97050.84
2023-03-02T02:00:58.954Z,97046.94
2023-03-02T02:02:02.095Z,97049.50
2023-03-02T02:03:09.421Z,97045.16
2023-03-02T02:04:11.692Z,97047.59
2023-03-02T02:05:19.305Z,97052.22
2023-03-02T02:06:25.224Z,97048.69
2023-03-02T02:07:28.793Z,97046.50
2023-03-02T02:08:30.724Z,97039.31
2023-03-02T02:09:34.947Z,97038.19
2023-03-02T02:10:37.282Z,97033.72
2023-03-02T02:11:39.259Z,97039.16
2023-03-02T02:12:41.029Z,97023.59
2023-03-02T02:13:42.875Z,97026.66
2023-03-02T02:14:45.726Z,97031.53
2023-03-02T02:15:47.518Z,97022.88
2023-03-02T02:16:49.334Z,97020.13
2023-03-02T02:17:52.290Z,97026.91
2023-03-02T02:18:54.174Z,97028.53
2023-03-02T02:20:07.961Z,97023.09
2023-03-02T02:21:09.863Z,97022.00
2023-03-02T02:22:12.342Z,97023.63
2023-03-02T02:23:17.246Z,97016.56
2023-03-02T02:24:26.020Z,97017.81
2023-03-02T02:25:39.965Z,97018.09
2023-03-02T02:26:47.243Z,97019.56
2023-03-02T02:27:48.994Z,97024.22
2023-03-02T02:28:58.122Z,97018.94
2023-03-02T02:30:01.896Z,97014.78
2023-03-02T02:31:18.434Z,97014.78
2023-03-02T02:32:24.528Z,97011.22
2023-03-02T02:33:26.901Z,97012.59
2023-03-02T02:34:33.789Z,97009.56
2023-03-02T02:35:38.869Z,97005.09
2023-03-02T02:36:42.749Z,97006.84
2023-03-02T02:37:59.588Z,96999.56
2023-03-02T02:39:04.018Z,97004.69
2023-03-02T02:40:07.695Z,97004.88
2023-03-02T02:41:13.432Z,97003.09
2023-03-02T02:42:17.820Z,97009.31
2023-03-02T02:43:21.722Z,97007.44
2023-03-02T02:44:23.531Z,97000.38
2023-03-02T02:45:26.280Z,97004.56
2023-03-02T02:46:28.205Z,97003.31
2023-03-02T02:47:30.143Z,96999.94
2023-03-02T02:48:32.769Z,97007.66
2023-03-02T02:49:35.924Z,96997.66
2023-03-02T02:50:38.458Z,96997.28
2023-03-02T02:51:40.246Z,96990.81
2023-03-02T02:52:42.119Z,97000.44
2023-03-02T02:54:00.838Z,97001.91
2023-03-02T02:55:03.173Z,96989.63
2023-03-02T02:56:06.937Z,96994.78
2023-03-02T02:57:11.507Z,97003.28
2023-03-02T02:58:25.326Z,96993.53
2023-03-02T02:59:29.344Z,96990.66
2023-03-02T03:00:31.180Z,96989.72
2023-03-02T03:01:33.883Z,96988.47
2023-03-02T03:02:42.159Z,96991.69
2023-03-02T03:03:46.324Z,96990.38
2023-03-02T03:04:48.203Z,96988.81
2023-03-02T03:05:49.989Z,96990.88
2023-03-02T03:06:51.899Z,96993.00
2023-03-02T03:07:53.752Z,96986.59
2023-03-02T03:08:57.348Z,96982.94
2023-03-02T03:10:05.453Z,96987.41
2023-03-02T03:11:08.296Z,96983.22
2023-03-02T03:12:17.820Z,96987.94
2023-03-02T03:13:19.651Z,96989.44
2023-03-02T03:14:25.390Z,96983.97
2023-03-02T03:15:27.221Z,96989.94
2023-03-02T03:16:30.700Z,96993.34
2023-03-02T03:17:32.893Z,96986.16
2023-03-02T03:18:34.681Z,96989.72
2023-03-02T03:19:36.611Z,96989.44
2023-03-02T03:20:38.332Z,96985.88
2023-03-02T03:21:40.179Z,96987.78
2023-03-02T03:22:42.053Z,96988.47
2023-03-02T03:23:43.987Z,96988.31
2023-03-02T03:24:46.078Z,96986.84
2023-03-02T03:25:47.853Z,96984.41
2023-03-02T03:26:50.025Z,96990.66
2023-03-02T03:27:51.889Z,96983.22
2023-03-02T03:28:53.745Z,96971.75
2023-03-02T03:29:55.633Z,96972.41
2023-03-02T03:30:57.497Z,96981.91
2023-03-02T03:32:00.132Z,96982.56
2023-03-02T03:33:02.203Z,96985.00
2023-03-02T03:34:04.046Z,96982.56
2023-03-02T03:35:08.916Z,96980.28
2023-03-02T03:36:10.744Z,96981.78
2023-03-02T03:37:14.313Z,96989.63
2023-03-02T03:38:16.858Z,96991.53
2023-03-02T03:39:18.720Z,96983.69
2023-03-02T03:40:20.619Z,96985.00
2023-03-02T03:41:22.396Z,96988.53
2023-03-02T03:42:24.436Z,96984.47
2023-03-02T03:43:26.301Z,96981.50
2023-03-02T03:44:28.691Z,96984.31
2023-03-02T03:45:31.241Z,96978.84
2023-03-02T03:46:33.802Z,96980.84
2023-03-02T03:47:36.542Z,96982.75
2023-03-02T03:48:38.458Z,96987.41
2023-03-02T03:49:40.186Z,96975.94
2023-03-02T03:50:41.984Z,96981.88
2023-03-02T03:51:43.839Z,96979.16
2023-03-02T03:52:45.702Z,96979.28
2023-03-02T03:54:00.179Z,96981.72
2023-03-02T03:55:02.517Z,96979.81
2023-03-02T03:56:04.936Z,96969.00
2023-03-02T03:57:06.669Z,96978.50
2023-03-02T03:58:08.471Z,96979.16
2023-03-02T03:59:12.582Z,96978.19
2023-03-02T04:00:17.905Z,96975.41
2023-03-02T04:01:19.776Z,96972.81
2023-03-02T04:02:22.437Z,96977.16
2023-03-02T04:03:24.373Z,96975.25
2023-03-02T04:04:31.353Z,96974.28
2023-03-02T04:05:33.231Z,96978.19
2023-03-02T04:06:35.394Z,96968.88
2023-03-02T04:07:37.871Z,96969.97
2023-03-02T04:08:40.274Z,96971.31
2023-03-02T04:09:42.335Z,96979.53
2023-03-02T04:10:44.261Z,96981.88
2023-03-02T04:11:47.547Z,96976.19
2023-03-02T04:12:49.327Z,96974.59
2023-03-02T04:13:51.094Z,96970.13
2023-03-02T04:14:52.922Z,96972.38
2023-03-02T04:15:54.751Z,96979.81
2023-03-02T04:16:56.677Z,96982.09
2023-03-02T04:17:58.516Z,96969.22
2023-03-02T04:19:00.927Z,96974.09
2023-03-02T04:20:02.897Z,96972.63
2023-03-02T04:21:04.784Z,96973.53
2023-03-02T04:22:06.534Z,96971.09
2023-03-02T04:23:08.404Z,96965.69
2023-03-02T04:24:10.332Z,96970.38
2023-03-02T04:25:13.230Z,96966.56
2023-03-02T04:26:15.033Z,96965.34
2023-03-02T04:27:17.324Z,96968.56
2023-03-02T04:28:19.188Z,96965.19
2023-03-02T04:29:21.089Z,96975.94
2023-03-02T04:30:24.507Z,96978.78
2023-03-02T04:31:26.423Z,96977.16
2023-03-02T04:32:28.280Z,96968.69
2023-03-02T04:33:30.068Z,96981.28
2023-03-02T04:34:32.361Z,96970.22
2023-03-02T04:35:34.569Z,96965.72
2023-03-02T04:36:38.036Z,96967.19
2023-03-02T04:37:40.917Z,96963.56
2023-03-02T04:38:42.894Z,96954.44
2023-03-02T04:39:47.571Z,96963.91
2023-03-02T04:40:49.325Z,96962.81
2023-03-02T04:41:51.211Z,96968.94
2023-03-02T04:42:53.051Z,96962.00
2023-03-02T04:43:54.969Z,96959.06
2023-03-02T04:44:56.756Z,96961.66
2023-03-02T04:45:58.844Z,96962.97
2023-03-02T04:47:00.629Z,96963.78
2023-03-02T04:48:02.412Z,96956.41
2023-03-02T04:49:04.673Z,96960.72
2023-03-02T04:50:06.865Z,96965.19
2023-03-02T04:51:13.337Z,96952.88
2023-03-02T04:52:15.065Z,96961.13
2023-03-02T04:53:17.068Z,96967.88
2023-03-02T04:54:24.172Z,96965.97
2023-03-02T04:55:26.939Z,96975.97
2023-03-02T04:56:29.133Z,96972.59
2023-03-02T04:57:31.036Z,96971.53
2023-03-02T04:58:32.804Z,96966.31
2023-03-02T04:59:35.138Z,96971.44
2023-03-02T05:00:37.129Z,96971.31
2023-03-02T05:01:38.979Z,96973.09
2023-03-02T05:02:41.607Z,96967.63
2023-03-02T05:03:43.528Z,96973.44
2023-03-02T05:04:45.425Z,96976.00
2023-03-02T05:05:47.205Z,96971.44
2023-03-02T05:06:49.009Z,96972.41
2023-03-02T05:07:51.232Z,96971.59
2023-03-02T05:08:53.588Z,96972.25
2023-03-02T05:09:55.497Z,96963.28
2023-03-02T05:10:58.495Z,96963.97
2023-03-02T05:12:00.750Z,96963.56
2023-03-02T05:13:03.012Z,96963.25
2023-03-02T05:14:05.933Z,96960.16
2023-03-02T05:15:07.932Z,96959.81
2023-03-02T05:16:09.737Z,96955.13
2023-03-02T05:17:11.536Z,96953.78
2023-03-02T05:18:13.630Z,96949.59
2023-03-02T05:19:15.506Z,96955.25
2023-03-02T05:20:17.655Z,96948.09
2023-03-02T05:21:19.423Z,96956.31
2023-03-02T05:22:21.202Z,96955.78
2023-03-02T05:23:27.312Z,96957.25
2023-03-02T05:24:29.149Z,96953.59
2023-03-02T05:25:31.868Z,96950.78
2023-03-02T05:26:34.012Z,96961.25
2023-03-02T05:27:37.110Z,96958.31
2023-03-02T05:28:39.005Z,96956.66
2023-03-02T05:29:40.869Z,96956.56
2023-03-02T05:30:42.770Z,96955.75
2023-03-02T05:31:45.183Z,96958.72
2023-03-02T05:32:47.354Z,96957.50
2023-03-02T05:33:49.134Z,96961.53
2023-03-02T05:34:50.853Z,96958.56
2023-03-02T05:35:52.679Z,96961.00
2023-03-02T05:36:54.520Z,96964.81
2023-03-02T05:37:56.335Z,96953.84
2023-03-02T05:38:58.593Z,96956.00
2023-03-02T05:40:00.463Z,96953.81
2023-03-02T05:41:02.254Z,96963.69
2023-03-02T05:42:04.134Z,96964.47
2023-03-02T05:43:05.895Z,96963.13
2023-03-02T05:44:10.304Z,96967.47
2023-03-02T05:45:21.705Z,96966.94
2023-03-02T05:46:23.873Z,96966.16
2023-03-02T05:47:25.696Z,96971.94
2023-03-02T05:48:28.275Z,96965.72
2023-03-02T05:49:30.164Z,96963.31
2023-03-02T05:50:31.990Z,96963.31
2023-03-02T05:51:33.793Z,96971.00
2023-03-02T05:52:35.565Z,96961.13
2023-03-02T05:53:37.337Z,96969.41
2023-03-02T05:54:39.144Z,96964.03
2023-03-02T05:55:40.955Z,96965.66
2023-03-02T05:56:42.743Z,96974.84
2023-03-02T05:57:45.263Z,96972.66
2023-03-02T05:58:47.026Z,96974.41
2023-03-02T05:59:51.191Z,96967.25
2023-03-02T06:00:52.972Z,96966.28
2023-03-02T06:01:59.083Z,96970.91
2023-03-02T06:03:01.082Z,96965.59
2023-03-02T06:04:03.057Z,96966.56
2023-03-02T06:05:08.467Z,96967.25
2023-03-02T06:06:14.518Z,96974.16
2023-03-02T06:07:16.472Z,96967.28
2023-03-02T06:08:19.229Z,96969.72
2023-03-02T06:09:21.142Z,96968.91
2023-03-02T06:10:23.377Z,96965.91
2023-03-02T06:11:25.157Z,96969.13
2023-03-02T06:12:27.039Z,96974.81
2023-03-02T06:13:28.932Z,96965.34
2023-03-02T06:14:30.726Z,96968.44
2023-03-02T06:15:32.527Z,96976.66
2023-03-02T06:16:34.649Z,96968.16
2023-03-02T06:17:36.643Z,96966.25
2023-03-02T06:18:41.289Z,96967.88
2023-03-02T06:19:43.263Z,96976.66
2023-03-02T06:20:45.393Z,96968.44
2023-03-02T06:21:47.214Z,96965.88
2023-03-02T06:22:49.080Z,96965.34
2023-03-02T06:23:50.867Z,96957.91
2023-03-02T06:24:55.391Z,96969.50
2023-03-02T06:25:58.401Z,96967.47
2023-03-02T06:27:00.496Z,96966.38
2023-03-02T06:28:02.256Z,96968.00
2023-03-02T06:29:05.612Z,96959.34
2023-03-02T06:30:08.800Z,96960.84
2023-03-02T06:31:10.643Z,96960.97
2023-03-02T06:32:12.535Z,96962.56
2023-03-02T06:33:15.940Z,96960.97
2023-03-02T06:34:17.819Z,96959.50
2023-03-02T06:35:19.776Z,96962.63
2023-03-02T06:36:21.784Z,96961.53
2023-03-02T06:37:23.646Z,96965.44
2023-03-02T06:38:25.526Z,96955.81
2023-03-02T06:39:27.371Z,96956.50
2023-03-02T06:40:31.307Z,96956.50
2023-03-02T06:41:36.639Z,96957.72
2023-03-02T06:42:38.943Z,96956.09
2023-03-02T06:43:40.760Z,96957.44
2023-03-02T06:44:42.472Z,96959.06
2023-03-02T06:45:44.328Z,96962.31
2023-03-02T06:46:46.123Z,96962.03
2023-03-02T06:47:47.985Z,96965.81
2023-03-02T06:48:49.724Z,96970.94
2023-03-02T06:49:51.491Z,96970.16
2023-03-02T06:50:53.288Z,96963.41
2023-03-02T06:51:55.083Z,96962.31
2023-03-02T06:52:56.964Z,96962.97
2023-03-02T06:53:58.862Z,96965.00
2023-03-02T06:55:00.887Z,96968.16
2023-03-02T06:56:02.699Z,96964.78
2023-03-02T06:57:04.684Z,96962.75
2023-03-02T06:58:06.604Z,96958.78
2023-03-02T06:59:08.568Z,96963.78
2023-03-02T07:00:15.668Z,96957.97
2023-03-02T07:01:17.598Z,96965.53
2023-03-02T07:02:19.493Z,96969.59
2023-03-02T07:03:21.334Z,96972.81
2023-03-02T07:04:23.219Z,96965.63
2023-03-02T07:05:25.223Z,96974.81
2023-03-02T07:06:27.012Z,96974.69
2023-03-02T07:07:28.847Z,96971.44
2023-03-02T07:08:30.741Z,96975.91
2023-03-02T07:09:33.437Z,96975.91
2023-03-02T07:10:35.296Z,96978.50
2023-03-02T07:11:37.140Z,96969.84
2023-03-02T07:12:39.283Z,96964.69
2023-03-02T07:13:41.326Z,96976.59
2023-03-02T07:14:43.147Z,96981.06
2023-03-02T07:15:45.036Z,96972.97
2023-03-02T07:16:46.948Z,96973.66
2023-03-02T07:17:48.932Z,96979.47
2023-03-02T07:18:50.734Z,96978.63
2023-03-02T07:19:52.554Z,96972.97
2023-03-02T07:20:54.318Z,96968.78
2023-03-02T07:21:56.096Z,96975.56
2023-03-02T07:22:58.154Z,96982.97
2023-03-02T07:23:59.970Z,96981.19
2023-03-02T07:25:01.908Z,96979.28
2023-03-02T07:26:08.740Z,96979.97
2023-03-02T07:27:10.602Z,96977.13
2023-03-02T07:28:12.407Z,96976.31
2023-03-02T07:29:14.270Z,96977.03
2023-03-02T07:30:16.176Z,96969.59
2023-03-02T07:31:18.223Z,96970.13
2023-03-02T07:32:20.156Z,96976.06
2023-03-02T07:33:22.546Z,96976.63
2023-03-02T07:34:25.354Z,96977.47
2023-03-02T07:35:27.245Z,96974.44
2023-03-02T07:36:29.200Z,96968.06
2023-03-02T07:37:31.014Z,96971.97
2023-03-02T07:38:32.926Z,96979.91
2023-03-02T07:39:34.782Z,96979.47
2023-03-02T07:40:40.094Z,96980.31
2023-03-02T07:41:41.913Z,96977.44
2023-03-02T07:42:43.722Z,96973.75
2023-03-02T07:43:45.524Z,96971.19
2023-03-02T07:44:47.505Z,96971.94
2023-03-02T07:45:49.266Z,96968.69
2023-03-02T07:46:51.154Z,96968.13
2023-03-02T07:47:53.059Z,96968.75
2023-03-02T07:48:54.865Z,96970.88
2023-03-02T07:49:56.843Z,96967.72
2023-03-02T07:51:02.482Z,96964.56
2023-03-02T07:52:04.568Z,96963.75
2023-03-02T07:53:06.369Z,96955.72
2023-03-02T07:54:08.361Z,96962.59
2023-03-02T07:55:10.580Z,96958.63
2023-03-02T07:56:12.499Z,96956.41
2023-03-02T07:57:16.475Z,96953.56
2023-03-02T07:58:18.355Z,96956.47
2023-03-02T07:59:20.181Z,96956.34
2023-03-02T08:00:22.179Z,96952.00
2023-03-02T08:01:24.184Z,96946.56
2023-03-02T08:02:26.131Z,96949.94
2023-03-02T08:03:27.915Z,96953.53
2023-03-02T08:04:29.736Z,96955.22
2023-03-02T08:05:31.592Z,96951.91
2023-03-02T08:06:33.387Z,96952.75
2023-03-02T08:07:35.371Z,96948.97
2023-03-02T08:08:37.474Z,96952.72
2023-03-02T08:09:39.984Z,96955.34
2023-03-02T08:10:42.229Z,96952.81
2023-03-02T08:11:45.113Z,96961.66
2023-03-02T08:12:46.992Z,96953.56
2023-03-02T08:13:48.887Z,96950.81
2023-03-02T08:14:50.734Z,96946.91
2023-03-02T08:15:59.343Z,96953.69
2023-03-02T08:17:01.321Z,96944.72
2023-03-02T10:28:22.044Z,96826.88
2023-03-02T10:29:23.851Z,96829.44
2023-03-02T10:30:34.241Z,96827.56
2023-03-02T10:31:40.155Z,96834.72
2023-03-02T10:32:52.242Z,96831.63
2023-03-02T10:33:54.167Z,96831.72
2023-03-02T10:34:56.162Z,96830.84
2023-03-02T10:36:01.304Z,96823.75
2023-03-02T10:37:03.318Z,96828.13
2023-03-02T10:38:12.694Z,96825.59
2023-03-02T10:39:16.076Z,96833.75
2023-03-02T10:40:29.868Z,96829.84
2023-03-02T10:41:33.484Z,96832.31
2023-03-02T10:42:43.151Z,96821.41
2023-03-02T10:43:53.064Z,96827.44
2023-03-02T10:45:22.154Z,96826.19
2023-03-02T10:46:24.197Z,96822.31
2023-03-02T10:47:27.805Z,96823.94
2023-03-02T10:48:29.832Z,96816.81
2023-03-02T10:49:36.518Z,96811.88
2023-03-02T10:50:39.020Z,96814.75
2023-03-02T10:51:42.934Z,96812.25
2023-03-02T10:52:59.756Z,96812.97
2023-03-02T10:54:05.566Z,96816.44
2023-03-02T10:55:14.769Z,96820.13
2023-03-02T10:56:21.068Z,96813.97
2023-03-02T10:57:25.740Z,96815.25
2023-03-02T10:58:32.296Z,96808.66
2023-03-02T10:59:47.285Z,96810.50
2023-03-02T11:00:56.395Z,96812.44
2023-03-02T11:02:18.731Z,96819.53
2023-03-02T11:03:21.534Z,96817.72
2023-03-02T11:04:23.472Z,96804.59
2023-03-02T11:05:30.743Z,96808.84
2023-03-02T11:06:33.883Z,96807.91
2023-03-02T11:07:36.355Z,96805.63
2023-03-02T11:08:38.265Z,96810.53
2023-03-02T11:09:40.221Z,96805.72
2023-03-02T11:10:52.305Z,96806.84
2023-03-02T11:11:55.722Z,96806.97
2023-03-02T11:12:58.556Z,96798.72
2023-03-02T11:14:14.840Z,96804.97
2023-03-02T11:15:19.299Z,96801.75
2023-03-02T11:16:29.061Z,96800.81
2023-03-02T11:17:33.270Z,96796.47
2023-03-02T11:18:38.009Z,96794.88
2023-03-02T11:19:41.632Z,96801.84
2023-03-02T11:20:45.979Z,96788.94
2023-03-02T11:21:51.960Z,96798.53
2023-03-02T11:22:56.867Z,96792.31
2023-03-02T11:24:05.067Z,96785.09
2023-03-02T11:25:08.646Z,96793.53
2023-03-02T11:26:21.743Z,96791.28
2023-03-02T11:27:31.854Z,96786.91
2023-03-02T11:28:41.149Z,96785.09
2023-03-02T11:29:42.996Z,96772.38
2023-03-02T11:30:48.462Z,96774.38
2023-03-02T11:31:55.840Z,96777.09
2023-03-02T11:33:04.522Z,96778.06
2023-03-02T11:34:17.301Z,96776.88
2023-03-02T11:35:23.061Z,96771.53
2023-03-02T11:36:30.929Z,96772.41
2023-03-02T11:37:35.753Z,96771.94
2023-03-02T11:38:43.499Z,96770.16
2023-03-02T11:39:54.984Z,96774.66
2023-03-02T11:41:00.803Z,96763.69
2023-03-02T11:42:02.804Z,96761.94
2023-03-02T11:43:07.790Z,96764.09
2023-03-02T11:44:14.595Z,96761.13
2023-03-02T11:45:22.471Z,96752.06
2023-03-02T11:46:30.874Z,96757.06
2023-03-02T11:47:33.258Z,96755.09
2023-03-02T11:48:35.230Z,96750.88
2023-03-02T11:49:40.377Z,96759.25
2023-03-02T11:51:02.556Z,96754.16
2023-03-02T11:52:04.702Z,96746.63
2023-03-02T11:53:10.681Z,96754.22
2023-03-02T11:54:29.883Z,96752.28
2023-03-02T11:55:34.470Z,96746.00
2023-03-02T11:56:38.719Z,96736.91
2023-03-02T11:57:48.693Z,96738.84
2023-03-02T11:58:54.404Z,96745.91
2023-03-02T11:59:57.175Z,96743.91
2023-03-02T12:00:59.929Z,96746.50
2023-03-02T12:02:02.457Z,96744.69
2023-03-02T12:03:06.180Z,96738.94
2023-03-02T12:04:12.074Z,96742.19
2023-03-02T12:05:25.382Z,96742.28
2023-03-02T12:06:28.997Z,96739.03
2023-03-02T12:07:31.510Z,96743.03
2023-03-02T12:08:33.271Z,96745.94
2023-03-02T12:09:37.660Z,96738.59
2023-03-02T12:10:41.113Z,96734.75
2023-03-02T12:11:45.600Z,96737.28
2023-03-02T12:12:48.484Z,96738.41
2023-03-02T12:14:00.506Z,96740.00
2023-03-02T12:15:02.394Z,96741.63
2023-03-02T12:16:24.458Z,96739.53
2023-03-02T12:17:26.328Z,96738.50
2023-03-02T12:18:29.826Z,96737.72
2023-03-02T12:19:42.186Z,96739.63
2023-03-02T12:20:44.019Z,96738.63
2023-03-02T12:21:59.175Z,96732.00
2023-03-02T12:23:08.737Z,96737.34
2023-03-02T12:24:32.452Z,96742.84
2023-03-02T12:25:40.057Z,96736.63
2023-03-02T12:26:42.077Z,96741.41
2023-03-02T12:27:44.248Z,96735.66
2023-03-02T12:29:15.426Z,96730.50
2023-03-02T12:30:18.694Z,96738.94
2023-03-02T12:31:20.651Z,96733.56
2023-03-02T12:32:27.276Z,96730.63
2023-03-02T12:33:29.186Z,96736.44
2023-03-02T12:34:34.797Z,96736.19
2023-03-02T12:35:37.281Z,96735.44
2023-03-02T12:36:43.508Z,96730.16
2023-03-02T12:37:47.792Z,96736.19
2023-03-02T12:39:12.940Z,96732.19
2023-03-02T12:40:27.119Z,96727.00
2023-03-02T12:41:39.364Z,96725.75
2023-03-02T12:42:59.849Z,96733.50
2023-03-02T12:44:07.567Z,96728.94
2023-03-02T12:45:28.196Z,96731.66
2023-03-02T12:46:32.133Z,96730.88
2023-03-02T12:47:34.395Z,96731.22
2023-03-02T12:48:49.183Z,96730.66
2023-03-02T12:49:57.096Z,96724.44
2023-03-02T12:51:01.007Z,96732.22
2023-03-02T12:52:04.493Z,96736.06
2023-03-02T12:53:07.622Z,96732.56
2023-03-02T12:54:35.923Z,96734.84
2023-03-02T12:55:38.715Z,96730.44
2023-03-02T12:56:44.518Z,96729.97
2023-03-02T12:57:50.658Z,96731.06
2023-03-02T12:58:53.513Z,96722.75
2023-03-02T13:00:00.926Z,96726.13
2023-03-02T13:01:03.461Z,96727.84
2023-03-02T13:02:16.116Z,96730.25
2023-03-02T13:03:18.915Z,96732.19
2023-03-02T13:04:25.441Z,96729.94
2023-03-02T13:05:29.180Z,96722.88
2023-03-02T13:06:32.305Z,96717.63
2023-03-02T13:07:41.453Z,96720.16
2023-03-02T13:08:44.900Z,96723.22
2023-03-02T13:09:57.311Z,96721.63
2023-03-02T13:11:01.638Z,96715.59
2023-03-02T13:12:03.663Z,96718.72
2023-03-02T13:13:22.901Z,96718.88
2023-03-02T13:14:28.770Z,96720.72
2023-03-02T13:15:30.694Z,96716.00
2023-03-02T13:16:34.038Z,96718.09
2023-03-02T13:17:36.190Z,96715.22
2023-03-02T13:18:39.914Z,96710.41
2023-03-02T13:19:41.742Z,96713.91
2023-03-02T13:20:43.861Z,96710.09
2023-03-02T13:21:45.822Z,96703.88
2023-03-02T13:22:47.961Z,96699.31
2023-03-02T13:23:52.180Z,96694.22
2023-03-02T13:25:05.653Z,96700.72
2023-03-02T13:26:07.631Z,96701.38
2023-03-02T13:27:23.234Z,96711.25
2023-03-02T13:28:27.820Z,96701.44
2023-03-02T13:29:32.119Z,96703.38
2023-03-02T13:30:35.420Z,96702.50
2023-03-02T13:31:37.460Z,96700.16
2023-03-02T13:32:40.628Z,96704.81
2023-03-02T13:33:44.935Z,96707.03
2023-03-02T13:34:51.371Z,96701.09
2023-03-02T13:35:53.406Z,96704.06
2023-03-02T13:36:55.374Z,96709.75
2023-03-02T13:38:01.953Z,96699.84
2023-03-02T13:39:07.361Z,96707.69
2023-03-02T13:40:25.353Z,96705.28
2023-03-02T13:41:29.220Z,96704.94
2023-03-02T13:42:38.971Z,96698.97
2023-03-02T13:43:40.904Z,96697.88
2023-03-02T13:44:43.493Z,96701.19
2023-03-02T13:45:55.781Z,96694.13
2023-03-02T13:46:58.440Z,96690.78
2023-03-02T13:48:01.522Z,96694.16
2023-03-02T13:49:10.176Z,96688.59
2023-03-02T13:50:20.556Z,96691.94
2023-03-02T13:51:24.937Z,96697.25
2023-03-02T13:52:28.413Z,96693.72
2023-03-02T13:53:31.871Z,96697.53
2023-03-02T13:54:35.356Z,96699.50
2023-03-02T13:55:37.426Z,96697.09
2023-03-02T13:56:44.226Z,96693.78
2023-03-02T13:57:46.484Z,96694.56
2023-03-02T13:58:48.383Z,96693.59
2023-03-02T13:59:50.338Z,96697.13
2023-03-02T14:00:52.719Z,96692.72
2023-03-02T14:01:54.689Z,96691.31
2023-03-02T14:02:56.669Z,96697.03
2023-03-02T14:04:00.675Z,96692.66
2023-03-02T14:05:02.665Z,96688.44
2023-03-02T14:06:06.331Z,96687.44
2023-03-02T14:07:08.216Z,96690.63
2023-03-02T14:08:10.244Z,96692.28
2023-03-02T14:09:12.165Z,96689.03
2023-03-02T14:10:18.273Z,96685.06
2023-03-02T14:11:20.235Z,96692.94
2023-03-02T14:12:27.594Z,96685.19
2023-03-02T14:13:35.780Z,96696.94
2023-03-02T14:14:40.106Z,96694.38
2023-03-02T14:15:43.621Z,96694.56
2023-03-02T14:16:45.618Z,96694.63
2023-03-02T14:17:49.464Z,96693.59
2023-03-02T14:18:53.202Z,96697.25
2023-03-02T14:19:55.845Z,96689.91
2023-03-02T14:20:58.414Z,96698.31
2023-03-02T14:22:00.504Z,96693.81
2023-03-02T14:23:06.854Z,96694.44
2023-03-02T14:24:09.535Z,96691.50
2023-03-02T14:25:11.518Z,96691.69
2023-03-02T14:26:32.324Z,96695.19
2023-03-02T14:27:34.438Z,96695.91
2023-03-02T14:28:36.453Z,96701.25
2023-03-02T14:29:39.814Z,96695.16
2023-03-02T14:30:44.211Z,96686.97
2023-03-02T14:31:46.089Z,96685.88
2023-03-02T14:32:48.361Z,96684.47
2023-03-02T14:33:51.241Z,96688.44
2023-03-02T14:34:53.120Z,96683.09
2023-03-02T14:35:57.095Z,96687.66
2023-03-02T14:36:59.866Z,96685.81
2023-03-02T14:38:01.831Z,96687.44
2023-03-02T14:39:05.335Z,96684.72
2023-03-02T14:40:14.628Z,96687.41
2023-03-02T14:41:22.236Z,96688.22